Time;durP1;ratioP1;P1;durP2;ratioP2;P2;SDS_P1;SDS_P2;PMS_P1;PMS_P2;Temp;Humidity;BMP_temperature;BMP_pressure;BME280_temperature;BME280_humidity;BME280_pressure;Samples;Min_cycle;Max_cycle;Signal;HPM_P1;HPM_P2
2024/02/20 00:00:23;;;;;;;13.60;4.37;;;;;;;;;;5021943;28;20182;-66
2024/02/20 00:02:49;;;;;;;11.50;3.97;;;;;;;;;;5021845;28;20181;-67
2024/02/20 00:05:15;;;;;;;11.67;3.47;;;;;;;;;;5018295;28;20200;-67
2024/02/20 00:07:41;;;;;;;14.47;4.47;;;;;;;;;;5018383;28;20670;-64
2024/02/20 00:10:08;;;;;;;12.90;4.20;;;;;;;;;;5022821;28;20518;-67
2024/02/20 00:12:37;;;;;;;11.53;3.60;;;;;;;;;;5018312;28;20178;-66
2024/02/20 00:15:05;;;;;;;12.47;4.80;;;;;;;;;;5015319;28;20638;-66
2024/02/20 00:17:31;;;;;;;17.00;4.00;;;;;;;;;;5021915;28;20228;-65
2024/02/20 00:19:57;;;;;;;13.17;4.13;;;;;;;;;;5020033;28;20302;-67
2024/02/20 00:22:23;;;;;;;13.37;4.17;;;;;;;;;;5023569;28;20323;-66
2024/02/20 00:24:49;;;;;;;10.77;3.73;;;;;;;;;;5019269;28;20170;-67
2024/02/20 00:27:15;;;;;;;8.00;3.60;;;;;;;;;;5016097;28;20178;-65
2024/02/20 00:29:42;;;;;;;13.30;5.20;;;;;;;;;;5013228;28;20607;-65
2024/02/20 00:32:08;;;;;;;13.17;3.73;;;;;;;;;;5019030;28;20573;-66
2024/02/20 00:34:34;;;;;;;11.97;4.20;;;;;;;;;;5020486;28;20567;-67
2024/02/20 00:37:00;;;;;;;18.53;4.73;;;;;;;;;;5024030;28;20186;-67
2024/02/20 00:39:27;;;;;;;12.53;4.17;;;;;;;;;;5019560;28;20216;-65
2024/02/20 00:41:53;;;;;;;13.53;4.07;;;;;;;;;;5019439;28;20525;-67
2024/02/20 00:44:22;;;;;;;18.93;4.63;;;;;;;;;;5024078;28;20182;-67
2024/02/20 00:46:48;;;;;;;11.10;3.67;;;;;;;;;;5022901;28;20177;-66
2024/02/20 00:49:14;;;;;;;19.73;4.53;;;;;;;;;;5021515;28;20193;-67
2024/02/20 00:51:40;;;;;;;10.03;4.10;;;;;;;;;;5020581;28;20254;-66
2024/02/20 00:54:06;;;;;;;13.97;4.37;;;;;;;;;;5018930;28;20266;-67
2024/02/20 00:56:32;;;;;;;14.53;4.20;;;;;;;;;;5016318;28;20657;-61
2024/02/20 00:58:58;;;;;;;10.07;3.47;;;;;;;;;;5020264;28;20301;-60
2024/02/20 01:01:25;;;;;;;9.67;3.73;;;;;;;;;;5022457;28;20178;-60
2024/02/20 01:03:51;;;;;;;11.27;4.07;;;;;;;;;;5014263;28;20178;-59
2024/02/20 01:06:17;;;;;;;12.30;3.83;;;;;;;;;;5022684;28;20189;-60
2024/02/20 01:08:43;;;;;;;12.70;4.00;;;;;;;;;;5019383;28;20182;-60
2024/02/20 01:11:09;;;;;;;17.93;4.33;;;;;;;;;;5022169;28;20175;-60
2024/02/20 01:13:35;;;;;;;8.77;3.87;;;;;;;;;;5021503;28;20209;-59
2024/02/20 01:16:01;;;;;;;14.10;5.13;;;;;;;;;;5018764;28;20194;-59
2024/02/20 01:18:27;;;;;;;9.83;4.43;;;;;;;;;;5019563;28;20259;-59
2024/02/20 01:20:53;;;;;;;10.73;3.47;;;;;;;;;;5015480;28;20202;-60
2024/02/20 01:23:19;;;;;;;17.03;4.00;;;;;;;;;;5020946;28;20645;-59
2024/02/20 01:25:45;;;;;;;12.47;3.63;;;;;;;;;;5019645;28;20451;-59
2024/02/20 01:28:11;;;;;;;11.30;4.37;;;;;;;;;;5020427;28;20177;-60
2024/02/20 01:30:37;;;;;;;9.17;3.73;;;;;;;;;;5020285;28;20250;-60
2024/02/20 01:33:04;;;;;;;10.83;4.60;;;;;;;;;;5015594;28;20200;-60
2024/02/20 01:35:30;;;;;;;11.70;3.80;;;;;;;;;;5020118;28;20518;-60
2024/02/20 01:37:56;;;;;;;9.53;3.20;;;;;;;;;;5023255;28;20565;-60
2024/02/20 01:40:23;;;;;;;10.57;3.10;;;;;;;;;;5019365;28;20276;-62
2024/02/20 01:42:58;;;;;;;10.27;4.20;;;;;;;;;;5023293;28;20202;-60
2024/02/20 01:45:25;;;;;;;10.23;3.93;;;;;;;;;;5016110;28;20268;-59
2024/02/20 01:47:51;;;;;;;10.40;3.90;;;;;;;;;;5020362;28;20267;-59
2024/02/20 01:50:17;;;;;;;12.87;3.47;;;;;;;;;;5013192;28;20229;-59
2024/02/20 01:52:43;;;;;;;9.43;3.13;;;;;;;;;;5021717;28;20202;-59
2024/02/20 01:55:11;;;;;;;7.77;3.13;;;;;;;;;;5013398;28;20187;-60
2024/02/20 01:57:38;;;;;;;11.63;3.73;;;;;;;;;;5014351;28;20227;-59
2024/02/20 02:00:05;;;;;;;13.93;3.50;;;;;;;;;;5015069;28;20184;-60
2024/02/20 02:02:31;;;;;;;10.47;3.77;;;;;;;;;;5017194;28;20178;-59
2024/02/20 02:04:57;;;;;;;11.77;4.20;;;;;;;;;;5012759;28;20209;-59
2024/02/20 02:07:23;;;;;;;8.67;2.93;;;;;;;;;;5020755;28;20212;-66
2024/02/20 02:09:50;;;;;;;8.37;2.83;;;;;;;;;;5019021;28;20188;-66
2024/02/20 02:12:15;;;;;;;8.50;3.00;;;;;;;;;;5015988;28;20244;-68
2024/02/20 02:14:45;;;;;;;6.87;3.27;;;;;;;;;;5018837;28;20178;-66
2024/02/20 02:17:14;;;;;;;8.73;2.80;;;;;;;;;;5019500;28;20274;-67
2024/02/20 02:19:41;;;;;;;9.43;3.30;;;;;;;;;;5018815;28;20716;-66
2024/02/20 02:22:07;;;;;;;8.93;2.87;;;;;;;;;;5017294;28;20248;-65
2024/02/20 02:24:36;;;;;;;10.30;3.17;;;;;;;;;;5011692;28;20661;-65
2024/02/20 02:27:06;;;;;;;5.97;2.47;;;;;;;;;;5015695;28;20532;-65
2024/02/20 02:29:32;;;;;;;5.87;2.70;;;;;;;;;;5011582;28;20186;-66
2024/02/20 02:31:58;;;;;;;6.97;3.27;;;;;;;;;;5017917;28;20547;-63
2024/02/20 02:34:27;;;;;;;8.60;2.50;;;;;;;;;;5022209;28;20269;-66
2024/02/20 02:36:54;;;;;;;12.93;3.23;;;;;;;;;;5023498;28;20181;-65
2024/02/20 02:39:22;;;;;;;9.33;3.27;;;;;;;;;;5021349;28;20217;-66
2024/02/20 02:41:48;;;;;;;6.53;3.10;;;;;;;;;;5023073;28;20174;-66
2024/02/20 02:44:14;;;;;;;7.43;2.67;;;;;;;;;;5021396;28;20615;-64
2024/02/20 02:46:40;;;;;;;7.43;2.73;;;;;;;;;;5024830;28;20213;-65
2024/02/20 02:49:07;;;;;;;10.93;3.57;;;;;;;;;;5021828;28;20532;-66
2024/02/20 02:51:33;;;;;;;7.63;3.10;;;;;;;;;;5025088;28;20225;-66
2024/02/20 02:54:00;;;;;;;9.70;3.50;;;;;;;;;;5021380;28;20519;-63
2024/02/20 02:56:28;;;;;;;6.53;2.80;;;;;;;;;;5017596;28;20182;-66
2024/02/20 02:58:54;;;;;;;9.17;3.23;;;;;;;;;;5021167;28;20328;-64
2024/02/20 03:01:20;;;;;;;7.93;3.37;;;;;;;;;;5019454;28;20654;-66
2024/02/20 03:03:46;;;;;;;12.77;3.80;;;;;;;;;;5018900;28;20622;-67
2024/02/20 03:06:12;;;;;;;5.33;3.60;;;;;;;;;;5020191;28;20196;-66
2024/02/20 03:08:38;;;;;;;8.97;3.63;;;;;;;;;;5017071;28;20314;-65
2024/02/20 03:11:08;;;;;;;11.83;3.43;;;;;;;;;;5021010;28;20193;-64
2024/02/20 03:13:34;;;;;;;6.80;3.10;;;;;;;;;;5020060;28;20197;-65
2024/02/20 03:16:01;;;;;;;10.67;3.50;;;;;;;;;;5020714;28;20712;-57
2024/02/20 03:18:27;;;;;;;11.00;3.37;;;;;;;;;;5025940;28;20230;-56
2024/02/20 03:20:53;;;;;;;11.87;3.07;;;;;;;;;;5024841;28;20187;-58
2024/02/20 03:23:19;;;;;;;12.70;4.03;;;;;;;;;;5022248;28;20190;-58
2024/02/20 03:25:46;;;;;;;8.23;3.80;;;;;;;;;;5016242;28;20229;-56
2024/02/20 03:28:13;;;;;;;8.47;3.50;;;;;;;;;;5020280;28;20213;-57
2024/02/20 03:30:40;;;;;;;8.03;3.00;;;;;;;;;;5019243;28;20204;-59
2024/02/20 03:33:07;;;;;;;10.83;3.47;;;;;;;;;;5020734;28;20638;-57
2024/02/20 03:35:33;;;;;;;13.40;4.10;;;;;;;;;;5020865;28;20204;-59
2024/02/20 03:37:59;;;;;;;10.20;3.47;;;;;;;;;;5023366;28;20238;-56
2024/02/20 03:40:25;;;;;;;9.40;3.20;;;;;;;;;;5024895;28;20550;-58
2024/02/20 03:42:51;;;;;;;10.13;3.70;;;;;;;;;;5015616;28;20201;-58
2024/02/20 03:45:17;;;;;;;7.10;3.50;;;;;;;;;;5022034;28;20185;-56
2024/02/20 03:47:43;;;;;;;10.30;3.90;;;;;;;;;;5024214;28;20256;-59
2024/02/20 03:50:09;;;;;;;9.87;3.90;;;;;;;;;;5025205;28;20174;-56
2024/02/20 03:52:35;;;;;;;10.17;3.47;;;;;;;;;;5019459;28;20646;-57
2024/02/20 03:55:01;;;;;;;6.67;3.23;;;;;;;;;;5015893;28;20192;-56
2024/02/20 03:57:27;;;;;;;9.43;3.37;;;;;;;;;;5014824;28;20204;-56
2024/02/20 03:59:55;;;;;;;9.20;4.03;;;;;;;;;;5016466;28;20309;-57
2024/02/20 04:02:21;;;;;;;12.03;3.97;;;;;;;;;;5022397;28;20383;-59
2024/02/20 04:04:47;;;;;;;9.80;4.03;;;;;;;;;;5025664;28;20178;-57
2024/02/20 04:07:13;;;;;;;10.57;3.50;;;;;;;;;;5023928;28;20601;-59
2024/02/20 04:09:41;;;;;;;7.13;3.43;;;;;;;;;;5019890;28;20717;-58
2024/02/20 04:12:07;;;;;;;6.70;3.77;;;;;;;;;;5021885;28;20181;-57
2024/02/20 04:14:33;;;;;;;11.00;3.83;;;;;;;;;;5021452;28;20647;-57
2024/02/20 04:16:59;;;;;;;11.83;4.63;;;;;;;;;;5024776;28;20213;-58
2024/02/20 04:19:25;;;;;;;9.90;4.40;;;;;;;;;;5019923;28;20322;-57
2024/02/20 04:21:51;;;;;;;11.33;4.23;;;;;;;;;;5023040;28;20241;-57
2024/02/20 04:24:17;;;;;;;7.23;4.43;;;;;;;;;;5017778;28;20188;-57
2024/02/20 04:26:43;;;;;;;6.93;3.40;;;;;;;;;;5021410;28;20182;-57
2024/02/20 04:29:09;;;;;;;8.53;3.90;;;;;;;;;;5022440;28;20554;-60
2024/02/20 04:31:35;;;;;;;7.60;3.50;;;;;;;;;;5023142;28;20416;-57
2024/02/20 04:34:01;;;;;;;9.50;3.67;;;;;;;;;;5019569;28;20563;-60
2024/02/20 04:36:27;;;;;;;6.40;3.70;;;;;;;;;;5020409;28;20247;-57
2024/02/20 04:38:57;;;;;;;11.77;4.40;;;;;;;;;;5023975;28;20281;-58
2024/02/20 04:41:24;;;;;;;8.50;3.37;;;;;;;;;;5021932;28;20256;-56
2024/02/20 04:43:50;;;;;;;9.50;3.53;;;;;;;;;;5019971;28;20206;-57
2024/02/20 04:46:16;;;;;;;8.53;3.60;;;;;;;;;;5018749;28;20557;-57
2024/02/20 04:48:42;;;;;;;12.03;3.50;;;;;;;;;;5016816;28;20178;-57
2024/02/20 04:51:08;;;;;;;7.03;3.90;;;;;;;;;;5019410;28;20625;-57
2024/02/20 04:53:34;;;;;;;6.77;3.63;;;;;;;;;;5015390;28;20527;-57
2024/02/20 04:56:00;;;;;;;8.07;3.17;;;;;;;;;;5014914;28;20401;-58
2024/02/20 04:58:27;;;;;;;9.13;3.57;;;;;;;;;;5016210;28;20722;-57
2024/02/20 05:00:53;;;;;;;10.57;4.07;;;;;;;;;;5013659;28;20182;-57
2024/02/20 05:03:19;;;;;;;12.77;4.60;;;;;;;;;;5021334;28;20190;-57
2024/02/20 05:05:45;;;;;;;8.27;3.93;;;;;;;;;;5021612;28;20909;-57
2024/02/20 05:08:11;;;;;;;8.07;3.57;;;;;;;;;;5024107;28;20259;-58
2024/02/20 05:10:37;;;;;;;7.43;3.63;;;;;;;;;;5018488;28;20268;-59
2024/02/20 05:13:03;;;;;;;9.60;3.90;;;;;;;;;;5021407;28;20174;-57
2024/02/20 05:15:29;;;;;;;9.37;3.53;;;;;;;;;;5019730;28;20645;-57
2024/02/20 05:17:55;;;;;;;8.73;4.13;;;;;;;;;;5022974;28;20201;-57
2024/02/20 05:20:22;;;;;;;9.60;3.03;;;;;;;;;;5020388;28;20689;-59
2024/02/20 05:22:49;;;;;;;9.77;4.07;;;;;;;;;;5017782;28;20166;-59
2024/02/20 05:25:15;;;;;;;5.57;3.33;;;;;;;;;;5020534;28;20180;-57
2024/02/20 05:27:41;;;;;;;10.60;4.23;;;;;;;;;;5013262;28;20197;-58
2024/02/20 05:30:07;;;;;;;8.23;3.77;;;;;;;;;;5015930;28;20190;-58
2024/02/20 05:32:33;;;;;;;9.18;4.70;;;;;;;;;;5022833;28;20482;-57
2024/02/20 05:34:59;;;;;;;7.90;3.43;;;;;;;;;;5016753;28;20578;-57
2024/02/20 05:37:25;;;;;;;8.67;4.03;;;;;;;;;;5020642;28;20223;-59
2024/02/20 05:39:51;;;;;;;9.00;3.90;;;;;;;;;;5017006;28;20202;-59
2024/02/20 05:42:17;;;;;;;7.17;3.03;;;;;;;;;;5017331;28;20213;-59
2024/02/20 05:44:43;;;;;;;7.23;4.07;;;;;;;;;;5020047;28;20786;-60
2024/02/20 05:47:10;;;;;;;9.17;3.73;;;;;;;;;;5021824;28;20515;-59
2024/02/20 05:49:36;;;;;;;8.33;3.83;;;;;;;;;;5021052;28;20709;-60
2024/02/20 05:52:02;;;;;;;6.53;3.97;;;;;;;;;;5016000;28;20705;-59
2024/02/20 05:54:28;;;;;;;6.97;3.57;;;;;;;;;;5016211;28;20174;-60
2024/02/20 05:56:54;;;;;;;7.83;3.80;;;;;;;;;;5017094;28;20186;-60
2024/02/20 05:59:20;;;;;;;12.40;4.20;;;;;;;;;;5019046;28;20294;-59
2024/02/20 06:01:46;;;;;;;6.77;3.60;;;;;;;;;;5018096;28;20186;-59
2024/02/20 06:04:12;;;;;;;8.47;3.50;;;;;;;;;;5017931;28;20492;-59
2024/02/20 06:06:38;;;;;;;5.97;3.70;;;;;;;;;;5020485;28;20174;-59
2024/02/20 06:09:04;;;;;;;8.07;3.77;;;;;;;;;;5021671;28;20169;-59
2024/02/20 06:11:30;;;;;;;10.13;3.47;;;;;;;;;;5021384;28;20185;-59
2024/02/20 06:13:57;;;;;;;7.40;3.83;;;;;;;;;;5024795;28;20223;-59
2024/02/20 06:16:25;;;;;;;7.60;3.30;;;;;;;;;;5022239;28;20620;-59
2024/02/20 06:18:51;;;;;;;11.67;3.73;;;;;;;;;;5017143;28;20257;-59
2024/02/20 06:21:17;;;;;;;6.90;3.53;;;;;;;;;;5024303;28;20213;-60
2024/02/20 06:23:43;;;;;;;6.53;3.70;;;;;;;;;;5021831;28;20182;-59
2024/02/20 06:26:10;;;;;;;10.40;4.23;;;;;;;;;;5024430;28;20231;-60
2024/02/20 06:28:36;;;;;;;11.07;5.13;;;;;;;;;;5021595;28;20214;-60
2024/02/20 06:31:07;;;;;;;8.30;4.70;;;;;;;;;;5022252;28;20683;-60
2024/02/20 06:33:33;;;;;;;11.10;5.60;;;;;;;;;;5021433;28;20223;-59
2024/02/20 06:35:59;;;;;;;14.00;5.90;;;;;;;;;;5023187;28;20686;-60
2024/02/20 06:38:31;;;;;;;12.30;5.17;;;;;;;;;;5023996;28;20214;-60
2024/02/20 06:40:57;;;;;;;11.83;5.17;;;;;;;;;;5025263;28;20264;-60
2024/02/20 06:43:23;;;;;;;12.80;5.03;;;;;;;;;;5023776;28;20212;-60
2024/02/20 06:45:49;;;;;;;10.00;4.57;;;;;;;;;;5022954;28;20169;-60
2024/02/20 06:48:15;;;;;;;14.93;5.07;;;;;;;;;;5011183;28;20716;-69
2024/02/20 06:50:41;;;;;;;11.70;4.67;;;;;;;;;;5034527;28;20209;-67
2024/02/20 06:53:07;;;;;;;11.93;5.50;;;;;;;;;;5026413;28;20656;-68
2024/02/20 06:55:33;;;;;;;11.03;5.30;;;;;;;;;;5017937;28;20186;-68
2024/02/20 06:57:59;;;;;;;8.93;4.90;;;;;;;;;;5020941;28;20213;-67
2024/02/20 07:00:26;;;;;;;10.93;5.50;;;;;;;;;;5024672;28;20311;-68
2024/02/20 07:02:52;;;;;;;12.03;5.63;;;;;;;;;;5021059;28;20182;-69
2024/02/20 07:05:18;;;;;;;8.60;5.13;;;;;;;;;;5023091;28;25060;-61
2024/02/20 07:07:45;;;;;;;13.20;5.13;;;;;;;;;;5021332;28;20166;-60
2024/02/20 07:10:11;;;;;;;10.70;5.57;;;;;;;;;;5023744;28;20174;-59
2024/02/20 07:12:37;;;;;;;7.33;4.70;;;;;;;;;;5021908;28;20174;-59
2024/02/20 07:15:05;;;;;;;13.37;5.10;;;;;;;;;;5022379;28;20190;-59
2024/02/20 07:17:33;;;;;;;13.43;4.67;;;;;;;;;;5018693;28;20638;-60
2024/02/20 07:19:59;;;;;;;10.87;6.40;;;;;;;;;;5013566;28;20316;-59
2024/02/20 07:22:26;;;;;;;10.63;5.47;;;;;;;;;;5023588;28;20288;-60
2024/02/20 07:24:52;;;;;;;8.73;5.23;;;;;;;;;;5020741;28;20602;-59
2024/02/20 07:27:19;;;;;;;10.37;5.57;;;;;;;;;;5018311;28;20190;-60
2024/02/20 07:29:46;;;;;;;10.47;4.67;;;;;;;;;;5021016;28;20288;-61
2024/02/20 07:32:12;;;;;;;10.43;5.27;;;;;;;;;;5023028;28;20233;-60
2024/02/20 07:34:38;;;;;;;9.97;5.13;;;;;;;;;;5020889;28;20179;-59
2024/02/20 07:37:05;;;;;;;11.93;5.50;;;;;;;;;;5027547;28;20220;-59
2024/02/20 07:39:31;;;;;;;9.17;5.03;;;;;;;;;;5019808;28;20551;-59
2024/02/20 07:41:57;;;;;;;10.23;5.50;;;;;;;;;;5022324;28;20178;-61
2024/02/20 07:44:23;;;;;;;10.17;4.90;;;;;;;;;;5017767;28;20625;-61
2024/02/20 07:46:49;;;;;;;7.93;4.40;;;;;;;;;;5022059;28;20185;-63
2024/02/20 07:49:15;;;;;;;10.73;5.50;;;;;;;;;;5023704;28;20183;-61
2024/02/20 07:51:41;;;;;;;12.40;5.10;;;;;;;;;;5021462;28;20217;-62
2024/02/20 07:54:07;;;;;;;8.97;5.10;;;;;;;;;;5017185;28;20228;-60
2024/02/20 07:56:33;;;;;;;12.57;5.73;;;;;;;;;;5020719;28;20194;-60
2024/02/20 07:58:59;;;;;;;11.13;5.43;;;;;;;;;;5026896;28;20194;-57
2024/02/20 08:01:25;;;;;;;15.13;5.87;;;;;;;;;;5027722;28;20216;-56
2024/02/20 08:03:55;;;;;;;13.60;5.83;;;;;;;;;;5018720;28;20527;-59
2024/02/20 08:06:21;;;;;;;9.93;5.20;;;;;;;;;;5025974;28;20233;-57
2024/02/20 08:08:47;;;;;;;14.97;6.20;;;;;;;;;;5017902;28;20804;-57
2024/02/20 08:11:13;;;;;;;10.80;5.83;;;;;;;;;;5023527;28;20204;-58
2024/02/20 08:13:42;;;;;;;12.07;6.30;;;;;;;;;;5022220;28;20573;-59
2024/02/20 08:16:12;;;;;;;11.20;6.17;;;;;;;;;;5023133;28;20684;-58
2024/02/20 08:18:40;;;;;;;10.80;6.17;;;;;;;;;;5026179;28;20241;-57
2024/02/20 08:21:06;;;;;;;12.70;6.67;;;;;;;;;;5022743;28;20194;-58
2024/02/20 08:23:32;;;;;;;14.40;6.50;;;;;;;;;;5017490;28;20324;-59
2024/02/20 08:25:58;;;;;;;11.13;6.63;;;;;;;;;;5017344;28;20647;-56
2024/02/20 08:28:24;;;;;;;11.73;6.57;;;;;;;;;;5019442;28;20450;-59
2024/02/20 08:30:51;;;;;;;15.20;8.30;;;;;;;;;;5019496;28;20576;-57
2024/02/20 08:33:17;;;;;;;12.27;6.70;;;;;;;;;;5023465;28;20531;-58
2024/02/20 08:35:43;;;;;;;11.27;6.77;;;;;;;;;;5014847;28;20677;-59
2024/02/20 08:38:09;;;;;;;15.63;7.60;;;;;;;;;;5019908;28;20649;-57
2024/02/20 08:40:35;;;;;;;14.90;7.53;;;;;;;;;;5013484;28;20204;-57
2024/02/20 08:43:01;;;;;;;14.23;7.90;;;;;;;;;;5022720;28;20193;-62
2024/02/20 08:45:28;;;;;;;11.47;7.27;;;;;;;;;;5018466;28;20194;-58
2024/02/20 08:47:54;;;;;;;20.87;8.97;;;;;;;;;;5013756;28;20628;-57
2024/02/20 08:50:21;;;;;;;14.50;8.97;;;;;;;;;;5022729;28;20182;-57
2024/02/20 08:52:47;;;;;;;16.50;8.87;;;;;;;;;;5024967;28;20189;-56
2024/02/20 08:55:14;;;;;;;15.53;9.40;;;;;;;;;;5016064;28;20653;-57
2024/02/20 08:57:40;;;;;;;16.00;9.50;;;;;;;;;;5015983;28;20247;-62
2024/02/20 09:00:11;;;;;;;16.37;9.77;;;;;;;;;;5021804;28;20210;-57
2024/02/20 09:02:44;;;;;;;19.03;9.93;;;;;;;;;;5021992;28;20289;-58
2024/02/20 09:05:10;;;;;;;18.20;9.30;;;;;;;;;;5020405;28;20181;-59
2024/02/20 09:07:36;;;;;;;26.53;11.23;;;;;;;;;;5023349;28;20181;-58
2024/02/20 09:10:05;;;;;;;12.93;9.67;;;;;;;;;;5019114;28;20186;-69
2024/02/20 09:12:31;;;;;;;17.17;10.77;;;;;;;;;;5021247;28;20222;-66
2024/02/20 09:14:58;;;;;;;18.83;11.57;;;;;;;;;;5021997;28;20236;-59
2024/02/20 09:17:24;;;;;;;16.27;10.47;;;;;;;;;;5019085;28;20192;-60
2024/02/20 09:19:50;;;;;;;17.93;10.37;;;;;;;;;;5019362;28;20326;-60
2024/02/20 09:22:16;;;;;;;20.77;11.53;;;;;;;;;;5019603;28;20177;-59
2024/02/20 09:24:42;;;;;;;21.37;11.90;;;;;;;;;;5023486;28;20542;-60
2024/02/20 09:27:08;;;;;;;20.90;11.37;;;;;;;;;;5016308;28;20292;-61
2024/02/20 09:29:34;;;;;;;24.20;12.07;;;;;;;;;;5023030;28;20182;-59
2024/02/20 09:32:00;;;;;;;24.17;12.47;;;;;;;;;;5019074;28;20603;-59
2024/02/20 09:34:26;;;;;;;24.97;12.50;;;;;;;;;;5013733;28;20178;-59
2024/02/20 09:36:53;;;;;;;19.90;11.70;;;;;;;;;;5024572;28;20182;-59
2024/02/20 09:39:22;;;;;;;24.20;13.30;;;;;;;;;;5016103;28;20641;-60
2024/02/20 09:41:51;;;;;;;17.30;11.13;;;;;;;;;;5021015;28;20680;-60
2024/02/20 09:44:18;;;;;;;19.93;11.80;;;;;;;;;;5022826;28;20185;-59
2024/02/20 09:46:48;;;;;;;22.97;11.50;;;;;;;;;;5027229;28;20213;-59
2024/02/20 09:49:14;;;;;;;20.17;12.30;;;;;;;;;;5024596;28;20181;-60
2024/02/20 09:51:41;;;;;;;22.30;11.80;;;;;;;;;;5029222;28;20207;-60
2024/02/20 09:54:07;;;;;;;19.20;12.13;;;;;;;;;;5026449;28;20186;-59
2024/02/20 09:56:36;;;;;;;22.10;13.53;;;;;;;;;;5027674;28;20241;-60
2024/02/20 09:59:03;;;;;;;20.53;12.07;;;;;;;;;;5028063;28;20231;-60
2024/02/20 10:01:29;;;;;;;23.57;12.53;;;;;;;;;;5024064;28;20186;-60
2024/02/20 10:03:57;;;;;;;19.67;13.40;;;;;;;;;;5026864;28;20178;-59
2024/02/20 10:06:24;;;;;;;22.80;12.27;;;;;;;;;;5028761;28;20657;-60
2024/02/20 10:08:56;;;;;;;26.47;12.63;;;;;;;;;;5026933;28;20550;-59
2024/02/20 10:11:22;;;;;;;22.97;14.23;;;;;;;;;;5020160;28;20688;-58
2024/02/20 10:13:52;;;;;;;19.07;12.57;;;;;;;;;;5022971;28;20174;-59
2024/02/20 10:16:19;;;;;;;20.50;13.13;;;;;;;;;;5025767;28;20228;-59
2024/02/20 10:18:56;;;;;;;25.10;13.30;;;;;;;;;;5027708;28;20269;-59
2024/02/20 10:21:22;;;;;;;24.77;13.83;;;;;;;;;;5023952;28;20725;-59
2024/02/20 10:23:48;;;;;;;24.87;14.43;;;;;;;;;;5025197;28;20284;-69
2024/02/20 10:26:20;;;;;;;30.27;14.77;;;;;;;;;;5028577;28;20287;-68
2024/02/20 10:28:46;;;;;;;28.20;14.30;;;;;;;;;;5023599;28;20555;-66
2024/02/20 10:31:13;;;;;;;22.00;13.27;;;;;;;;;;5030260;28;20284;-63
2024/02/20 10:33:49;;;;;;;24.83;14.00;;;;;;;;;;5024110;28;20698;-70
2024/02/20 10:36:19;;;;;;;26.40;15.33;;;;;;;;;;5028267;28;20185;-70
2024/02/20 10:38:47;;;;;;;24.20;14.37;;;;;;;;;;5024992;28;20209;-67
2024/02/20 10:41:14;;;;;;;28.53;15.57;;;;;;;;;;5026950;28;20189;-68
2024/02/20 10:43:42;;;;;;;21.80;14.77;;;;;;;;;;5024948;28;20212;-69
2024/02/20 10:46:08;;;;;;;31.93;17.30;;;;;;;;;;5025893;28;20664;-69
2024/02/20 10:48:34;;;;;;;29.60;15.90;;;;;;;;;;5028939;28;20574;-69
2024/02/20 10:51:00;;;;;;;24.70;14.70;;;;;;;;;;5021796;28;20193;-69
2024/02/20 10:53:26;;;;;;;24.23;15.90;;;;;;;;;;5017667;28;20642;-64
2024/02/20 10:55:53;;;;;;;27.73;15.50;;;;;;;;;;5022760;28;20182;-69
2024/02/20 10:58:19;;;;;;;26.87;14.97;;;;;;;;;;5024104;28;20202;-70
2024/02/20 11:00:46;;;;;;;27.43;16.60;;;;;;;;;;5023655;28;20316;-69
2024/02/20 11:03:13;;;;;;;30.67;15.57;;;;;;;;;;5026619;28;20170;-69
2024/02/20 11:05:39;;;;;;;20.53;15.07;;;;;;;;;;5020906;28;20562;-70
2024/02/20 11:08:09;;;;;;;32.57;16.90;;;;;;;;;;5020624;28;20265;-69
2024/02/20 11:10:35;;;;;;;23.63;14.60;;;;;;;;;;5021876;28;20223;-66
2024/02/20 11:13:22;;;;;;;25.70;16.10;;;;;;;;;;5022715;28;20372;-70
2024/02/20 11:15:49;;;;;;;26.30;15.97;;;;;;;;;;5022969;28;20189;-70
2024/02/20 11:18:16;;;;;;;27.67;16.43;;;;;;;;;;5024507;28;20217;-69
2024/02/20 11:20:44;;;;;;;27.80;16.87;;;;;;;;;;5023037;28;20178;-66
2024/02/20 11:23:10;;;;;;;33.07;17.07;;;;;;;;;;5023967;28;20170;-70
2024/02/20 11:25:37;;;;;;;29.77;16.13;;;;;;;;;;5020294;28;20166;-69
2024/02/20 11:28:13;;;;;;;28.83;16.23;;;;;;;;;;5024586;28;20178;-69
2024/02/20 11:30:40;;;;;;;29.90;15.83;;;;;;;;;;5022124;28;20657;-60
2024/02/20 11:33:15;;;;;;;25.27;16.87;;;;;;;;;;5021574;28;20480;-60
2024/02/20 11:35:43;;;;;;;23.77;14.63;;;;;;;;;;5020565;28;20189;-60
2024/02/20 11:38:11;;;;;;;30.93;16.13;;;;;;;;;;5020357;28;20224;-60
2024/02/20 11:40:37;;;;;;;29.43;16.77;;;;;;;;;;5021608;28;20950;-60
2024/02/20 11:43:05;;;;;;;27.27;15.87;;;;;;;;;;5019856;28;20217;-60
2024/02/20 11:45:31;;;;;;;26.80;17.77;;;;;;;;;;5021077;28;20617;-60
2024/02/20 11:47:57;;;;;;;25.20;16.93;;;;;;;;;;5022062;28;20173;-60
2024/02/20 11:50:26;;;;;;;30.87;15.90;;;;;;;;;;5022168;28;20697;-60
2024/02/20 11:52:59;;;;;;;35.27;17.07;;;;;;;;;;5022569;28;20253;-61
2024/02/20 11:55:26;;;;;;;25.07;16.13;;;;;;;;;;5023980;28;20201;-60
2024/02/20 11:57:52;;;;;;;28.20;16.20;;;;;;;;;;5019926;28;20177;-60
2024/02/20 12:00:20;;;;;;;27.50;15.67;;;;;;;;;;5023627;28;20184;-60
2024/02/20 12:02:46;;;;;;;24.70;15.70;;;;;;;;;;5023002;28;20180;-60
2024/02/20 12:05:20;;;;;;;28.57;16.17;;;;;;;;;;5025338;28;20223;-59
2024/02/20 12:07:46;;;;;;;27.90;16.07;;;;;;;;;;5025792;28;20180;-57
2024/02/20 12:10:17;;;;;;;26.60;16.40;;;;;;;;;;5023648;28;20182;-60
2024/02/20 12:12:43;;;;;;;31.80;16.80;;;;;;;;;;5024963;28;20637;-60
2024/02/20 12:15:11;;;;;;;24.73;15.33;;;;;;;;;;5020565;28;20189;-58
2024/02/20 12:17:41;;;;;;;26.37;15.07;;;;;;;;;;5023812;28;20186;-59
2024/02/20 12:20:11;;;;;;;31.87;16.67;;;;;;;;;;5023653;28;20227;-59
2024/02/20 12:22:42;;;;;;;39.53;16.20;;;;;;;;;;5022814;28;20630;-59
2024/02/20 12:25:09;;;;;;;24.87;14.07;;;;;;;;;;5021884;28;20205;-60
2024/02/20 12:27:36;;;;;;;29.60;14.30;;;;;;;;;;5021688;28;20193;-60
2024/02/20 12:30:03;;;;;;;24.17;13.87;;;;;;;;;;5018329;28;20181;-60
2024/02/20 12:32:29;;;;;;;26.73;14.13;;;;;;;;;;5021342;28;20186;-57
2024/02/20 12:34:55;;;;;;;22.47;13.77;;;;;;;;;;5022357;28;20193;-56
2024/02/20 12:37:21;;;;;;;22.70;13.27;;;;;;;;;;5023762;28;20213;-58
2024/02/20 12:39:47;;;;;;;23.00;13.30;;;;;;;;;;5018818;28;20673;-68
2024/02/20 12:42:13;;;;;;;21.10;12.73;;;;;;;;;;5018828;28;20222;-67
2024/02/20 12:44:39;;;;;;;28.53;14.07;;;;;;;;;;5016946;28;20189;-67
2024/02/20 12:47:06;;;;;;;22.17;14.53;;;;;;;;;;5017060;28;20641;-66
2024/02/20 12:49:33;;;;;;;24.37;14.17;;;;;;;;;;5012687;28;20236;-67
2024/02/20 12:51:59;;;;;;;21.50;13.33;;;;;;;;;;5017743;28;20284;-68
2024/02/20 12:54:25;;;;;;;27.67;13.33;;;;;;;;;;5008793;28;20169;-68
2024/02/20 12:56:51;;;;;;;25.83;11.87;;;;;;;;;;5017456;28;20660;-66
2024/02/20 12:59:17;;;;;;;21.63;11.30;;;;;;;;;;5019456;28;20571;-70
2024/02/20 13:01:46;;;;;;;23.07;10.97;;;;;;;;;;5023251;28;20177;-68
2024/02/20 13:04:12;;;;;;;24.93;12.37;;;;;;;;;;5017299;28;20725;-67
2024/02/20 13:06:38;;;;;;;22.83;11.40;;;;;;;;;;5016902;28;20182;-69
2024/02/20 13:09:05;;;;;;;25.87;11.40;;;;;;;;;;5019791;28;20193;-68
2024/02/20 13:11:31;;;;;;;22.23;9.93;;;;;;;;;;5021831;28;20190;-69
2024/02/20 13:13:57;;;;;;;25.50;10.90;;;;;;;;;;5023782;28;20265;-69
2024/02/20 13:16:23;;;;;;;20.57;10.07;;;;;;;;;;5020991;28;20661;-68
2024/02/20 13:18:49;;;;;;;24.10;9.30;;;;;;;;;;5017454;28;20487;-68
2024/02/20 13:21:16;;;;;;;25.13;9.90;;;;;;;;;;5017804;28;20643;-65
2024/02/20 13:23:42;;;;;;;23.73;9.33;;;;;;;;;;5012079;28;20193;-66
2024/02/20 13:26:08;;;;;;;20.80;9.27;;;;;;;;;;5014305;28;20199;-68
2024/02/20 13:28:35;;;;;;;16.97;8.30;;;;;;;;;;5019221;28;20181;-68
2024/02/20 13:31:01;;;;;;;24.67;8.50;;;;;;;;;;5018280;28;20649;-69
2024/02/20 13:33:27;;;;;;;18.60;7.33;;;;;;;;;;5016280;28;20186;-68
2024/02/20 13:35:53;;;;;;;16.07;8.43;;;;;;;;;;5022150;28;20193;-69
2024/02/20 13:38:19;;;;;;;16.53;7.87;;;;;;;;;;5014467;28;20289;-67
2024/02/20 13:40:47;;;;;;;16.03;8.13;;;;;;;;;;5017374;28;20734;-68
2024/02/20 13:43:13;;;;;;;18.37;7.80;;;;;;;;;;5019072;28;20198;-68
2024/02/20 13:45:46;;;;;;;17.90;7.77;;;;;;;;;;5016142;28;20185;-67
2024/02/20 13:48:17;;;;;;;22.17;7.17;;;;;;;;;;5012727;28;20229;-67
2024/02/20 13:50:43;;;;;;;19.87;6.90;;;;;;;;;;5019419;28;20474;-60
2024/02/20 13:53:12;;;;;;;18.60;7.17;;;;;;;;;;5019126;28;20186;-62
2024/02/20 13:55:40;;;;;;;25.37;8.53;;;;;;;;;;5017999;28;20180;-62
2024/02/20 13:58:06;;;;;;;18.50;6.60;;;;;;;;;;5016555;28;20181;-63
2024/02/20 14:00:32;;;;;;;17.83;7.03;;;;;;;;;;5024642;28;20185;-60
2024/02/20 14:02:58;;;;;;;14.07;7.17;;;;;;;;;;5018610;28;20189;-61
2024/02/20 14:05:24;;;;;;;18.10;8.07;;;;;;;;;;5018696;28;20216;-60
2024/02/20 14:07:52;;;;;;;16.43;6.10;;;;;;;;;;5025482;28;20182;-61
2024/02/20 14:10:18;;;;;;;14.43;7.30;;;;;;;;;;5019525;28;20669;-60
2024/02/20 14:12:44;;;;;;;21.87;7.83;;;;;;;;;;5019290;28;20595;-60
2024/02/20 14:15:11;;;;;;;12.23;6.00;;;;;;;;;;5019241;28;20223;-60
2024/02/20 14:17:37;;;;;;;15.40;6.40;;;;;;;;;;5025004;28;20206;-59
2024/02/20 14:20:04;;;;;;;16.63;6.00;;;;;;;;;;5017388;28;20352;-62
2024/02/20 14:22:30;;;;;;;11.27;4.97;;;;;;;;;;5015918;28;20182;-61
2024/02/20 14:24:56;;;;;;;14.57;5.80;;;;;;;;;;5013067;28;20672;-60
2024/02/20 14:27:22;;;;;;;13.97;5.67;;;;;;;;;;5021981;28;20591;-60